sensor_id;sensor_type;location;lat;lon;timestamp;P1;durP1;ratioP1;P2;durP2;ratioP2
84197;SDS011;74335;42.658;23.396;2023-11-22T00:01:10;12.90;;;6.72;;
84197;SDS011;74335;42.658;23.396;2023-11-22T00:03:37;15.02;;;6.35;;
84197;SDS011;74335;42.658;23.396;2023-11-22T00:06:06;10.68;;;6.60;;
84197;SDS011;74335;42.658;23.396;2023-11-22T00:08:33;8.30;;;6.30;;
84197;SDS011;74335;42.658;23.396;2023-11-22T00:11:00;9.35;;;6.47;;
84197;SDS011;74335;42.658;23.396;2023-11-22T00:13:26;11.85;;;6.53;;
84197;SDS011;74335;42.658;23.396;2023-11-22T00:15:54;10.95;;;6.75;;
84197;SDS011;74335;42.658;23.396;2023-11-22T00:18:21;11.60;;;6.25;;
84197;SDS011;74335;42.658;23.396;2023-11-22T00:20:49;9.57;;;6.47;;
84197;SDS011;74335;42.658;23.396;2023-11-22T00:23:17;9.02;;;6.45;;
84197;SDS011;74335;42.658;23.396;2023-11-22T00:25:44;9.18;;;6.47;;
84197;SDS011;74335;42.658;23.396;2023-11-22T00:28:10;8.98;;;5.82;;
84197;SDS011;74335;42.658;23.396;2023-11-22T00:30:37;8.80;;;5.28;;
84197;SDS011;74335;42.658;23.396;2023-11-22T00:33:04;9.88;;;6.28;;
84197;SDS011;74335;42.658;23.396;2023-11-22T00:35:31;10.63;;;5.60;;
84197;SDS011;74335;42.658;23.396;2023-11-22T00:37:57;9.88;;;6.28;;
84197;SDS011;74335;42.658;23.396;2023-11-22T00:40:25;10.27;;;5.93;;
84197;SDS011;74335;42.658;23.396;2023-11-22T00:42:52;10.55;;;7.20;;
84197;SDS011;74335;42.658;23.396;2023-11-22T00:45:19;8.50;;;5.55;;
84197;SDS011;74335;42.658;23.396;2023-11-22T00:47:46;10.00;;;6.15;;
84197;SDS011;74335;42.658;23.396;2023-11-22T00:50:13;10.43;;;6.20;;
84197;SDS011;74335;42.658;23.396;2023-11-22T00:52:44;11.73;;;6.20;;
84197;SDS011;74335;42.658;23.396;2023-11-22T00:55:11;8.52;;;5.47;;
84197;SDS011;74335;42.658;23.396;2023-11-22T00:57:40;9.60;;;5.85;;
84197;SDS011;74335;42.658;23.396;2023-11-22T01:00:07;12.45;;;5.75;;
84197;SDS011;74335;42.658;23.396;2023-11-22T01:02:37;7.78;;;5.90;;
84197;SDS011;74335;42.658;23.396;2023-11-22T01:05:05;6.90;;;4.80;;
84197;SDS011;74335;42.658;23.396;2023-11-22T01:07:35;10.75;;;7.03;;
84197;SDS011;74335;42.658;23.396;2023-11-22T01:10:01;13.13;;;6.85;;
84197;SDS011;74335;42.658;23.396;2023-11-22T01:12:28;9.43;;;6.68;;
84197;SDS011;74335;42.658;23.396;2023-11-22T01:14:56;9.80;;;5.60;;
84197;SDS011;74335;42.658;23.396;2023-11-22T01:17:23;8.98;;;6.57;;
84197;SDS011;74335;42.658;23.396;2023-11-22T01:19:50;9.43;;;6.28;;
84197;SDS011;74335;42.658;23.396;2023-11-22T01:22:17;11.52;;;5.72;;
84197;SDS011;74335;42.658;23.396;2023-11-22T01:24:44;8.70;;;6.25;;
84197;SDS011;74335;42.658;23.396;2023-11-22T01:27:11;10.52;;;6.03;;
84197;SDS011;74335;42.658;23.396;2023-11-22T01:29:38;12.60;;;6.55;;
84197;SDS011;74335;42.658;23.396;2023-11-22T01:32:06;10.27;;;4.72;;
84197;SDS011;74335;42.658;23.396;2023-11-22T01:34:33;9.30;;;5.88;;
84197;SDS011;74335;42.658;23.396;2023-11-22T01:37:00;8.45;;;5.85;;
84197;SDS011;74335;42.658;23.396;2023-11-22T01:39:26;8.48;;;5.75;;
84197;SDS011;74335;42.658;23.396;2023-11-22T01:41:53;10.15;;;5.60;;
84197;SDS011;74335;42.658;23.396;2023-11-22T01:44:21;9.07;;;5.80;;
84197;SDS011;74335;42.658;23.396;2023-11-22T01:46:49;8.10;;;5.53;;
84197;SDS011;74335;42.658;23.396;2023-11-22T01:49:17;9.55;;;5.43;;
84197;SDS011;74335;42.658;23.396;2023-11-22T01:51:44;8.63;;;5.85;;
84197;SDS011;74335;42.658;23.396;2023-11-22T01:54:11;9.35;;;5.38;;
84197;SDS011;74335;42.658;23.396;2023-11-22T01:56:38;9.60;;;6.32;;
84197;SDS011;74335;42.658;23.396;2023-11-22T01:59:05;8.52;;;5.47;;
84197;SDS011;74335;42.658;23.396;2023-11-22T02:01:32;10.48;;;5.75;;
84197;SDS011;74335;42.658;23.396;2023-11-22T02:03:59;10.80;;;6.30;;
84197;SDS011;74335;42.658;23.396;2023-11-22T02:06:27;8.02;;;5.78;;
84197;SDS011;74335;42.658;23.396;2023-11-22T02:08:56;7.95;;;5.50;;
84197;SDS011;74335;42.658;23.396;2023-11-22T02:11:22;9.35;;;6.38;;
84197;SDS011;74335;42.658;23.396;2023-11-22T02:13:49;8.65;;;6.18;;
84197;SDS011;74335;42.658;23.396;2023-11-22T02:16:16;9.80;;;5.70;;
84197;SDS011;74335;42.658;23.396;2023-11-22T02:18:44;7.75;;;5.63;;
84197;SDS011;74335;42.658;23.396;2023-11-22T02:21:10;10.38;;;5.70;;
84197;SDS011;74335;42.658;23.396;2023-11-22T02:23:38;9.30;;;5.70;;
84197;SDS011;74335;42.658;23.396;2023-11-22T02:26:05;9.32;;;5.55;;
84197;SDS011;74335;42.658;23.396;2023-11-22T02:28:32;8.52;;;5.60;;
84197;SDS011;74335;42.658;23.396;2023-11-22T02:30:59;7.72;;;5.38;;
84197;SDS011;74335;42.658;23.396;2023-11-22T02:33:25;7.45;;;5.95;;
84197;SDS011;74335;42.658;23.396;2023-11-22T02:35:52;11.98;;;5.88;;
84197;SDS011;74335;42.658;23.396;2023-11-22T02:38:19;12.52;;;5.63;;
84197;SDS011;74335;42.658;23.396;2023-11-22T02:40:48;8.77;;;4.72;;
84197;SDS011;74335;42.658;23.396;2023-11-22T02:43:15;10.27;;;4.35;;
84197;SDS011;74335;42.658;23.396;2023-11-22T02:45:42;8.10;;;5.22;;
84197;SDS011;74335;42.658;23.396;2023-11-22T02:48:09;9.02;;;5.90;;
84197;SDS011;74335;42.658;23.396;2023-11-22T02:50:36;11.10;;;5.93;;
84197;SDS011;74335;42.658;23.396;2023-11-22T02:53:03;10.00;;;5.78;;
84197;SDS011;74335;42.658;23.396;2023-11-22T02:55:30;8.15;;;5.20;;
84197;SDS011;74335;42.658;23.396;2023-11-22T02:57:58;7.95;;;5.80;;
84197;SDS011;74335;42.658;23.396;2023-11-22T03:00:25;7.65;;;5.53;;
84197;SDS011;74335;42.658;23.396;2023-11-22T03:02:52;8.88;;;5.50;;
84197;SDS011;74335;42.658;23.396;2023-11-22T03:05:21;8.68;;;5.40;;
84197;SDS011;74335;42.658;23.396;2023-11-22T03:07:49;9.02;;;5.35;;
84197;SDS011;74335;42.658;23.396;2023-11-22T03:10:16;8.55;;;5.53;;
84197;SDS011;74335;42.658;23.396;2023-11-22T03:12:44;9.93;;;5.72;;
84197;SDS011;74335;42.658;23.396;2023-11-22T03:15:12;7.18;;;5.85;;
84197;SDS011;74335;42.658;23.396;2023-11-22T03:17:39;9.07;;;5.20;;
84197;SDS011;74335;42.658;23.396;2023-11-22T03:20:07;7.63;;;5.25;;
84197;SDS011;74335;42.658;23.396;2023-11-22T03:22:36;10.95;;;5.72;;
84197;SDS011;74335;42.658;23.396;2023-11-22T03:25:03;8.70;;;5.60;;
84197;SDS011;74335;42.658;23.396;2023-11-22T03:27:30;11.43;;;5.80;;
84197;SDS011;74335;42.658;23.396;2023-11-22T03:29:57;9.65;;;5.30;;
84197;SDS011;74335;42.658;23.396;2023-11-22T03:32:25;7.95;;;5.10;;
84197;SDS011;74335;42.658;23.396;2023-11-22T03:34:52;8.20;;;4.72;;
84197;SDS011;74335;42.658;23.396;2023-11-22T03:37:19;7.50;;;4.78;;
84197;SDS011;74335;42.658;23.396;2023-11-22T03:39:45;9.65;;;5.57;;
84197;SDS011;74335;42.658;23.396;2023-11-22T03:42:14;10.93;;;5.45;;
84197;SDS011;74335;42.658;23.396;2023-11-22T03:44:42;9.30;;;5.30;;
84197;SDS011;74335;42.658;23.396;2023-11-22T03:47:09;8.82;;;5.35;;
84197;SDS011;74335;42.658;23.396;2023-11-22T03:49:38;9.55;;;5.38;;
84197;SDS011;74335;42.658;23.396;2023-11-22T03:52:05;8.85;;;4.88;;
84197;SDS011;74335;42.658;23.396;2023-11-22T03:54:33;9.13;;;4.97;;
84197;SDS011;74335;42.658;23.396;2023-11-22T03:57:00;8.35;;;5.30;;
84197;SDS011;74335;42.658;23.396;2023-11-22T03:59:27;7.63;;;5.40;;
84197;SDS011;74335;42.658;23.396;2023-11-22T04:01:53;10.23;;;5.55;;
84197;SDS011;74335;42.658;23.396;2023-11-22T04:04:20;8.40;;;4.90;;
84197;SDS011;74335;42.658;23.396;2023-11-22T04:06:48;8.32;;;5.10;;
84197;SDS011;74335;42.658;23.396;2023-11-22T04:09:15;7.32;;;5.03;;
84197;SDS011;74335;42.658;23.396;2023-11-22T04:11:42;8.63;;;5.03;;
84197;SDS011;74335;42.658;23.396;2023-11-22T04:14:09;10.60;;;5.85;;
84197;SDS011;74335;42.658;23.396;2023-11-22T04:16:36;7.50;;;5.70;;
84197;SDS011;74335;42.658;23.396;2023-11-22T04:19:03;8.15;;;5.47;;
84197;SDS011;74335;42.658;23.396;2023-11-22T04:21:30;9.23;;;5.32;;
84197;SDS011;74335;42.658;23.396;2023-11-22T04:23:58;11.00;;;5.75;;
84197;SDS011;74335;42.658;23.396;2023-11-22T04:26:25;8.23;;;4.75;;
84197;SDS011;74335;42.658;23.396;2023-11-22T04:28:51;9.43;;;5.13;;
84197;SDS011;74335;42.658;23.396;2023-11-22T04:31:18;7.85;;;5.10;;
84197;SDS011;74335;42.658;23.396;2023-11-22T04:33:45;8.65;;;5.00;;
84197;SDS011;74335;42.658;23.396;2023-11-22T04:36:11;7.85;;;5.93;;
84197;SDS011;74335;42.658;23.396;2023-11-22T04:38:38;6.60;;;4.55;;
84197;SDS011;74335;42.658;23.396;2023-11-22T04:41:06;7.97;;;4.82;;
84197;SDS011;74335;42.658;23.396;2023-11-22T04:43:33;8.38;;;5.60;;
84197;SDS011;74335;42.658;23.396;2023-11-22T04:45:59;8.52;;;5.68;;
84197;SDS011;74335;42.658;23.396;2023-11-22T04:48:26;6.03;;;3.67;;
84197;SDS011;74335;42.658;23.396;2023-11-22T04:50:53;8.63;;;4.80;;
84197;SDS011;74335;42.658;23.396;2023-11-22T04:53:19;8.27;;;5.07;;
84197;SDS011;74335;42.658;23.396;2023-11-22T04:55:46;8.27;;;5.13;;
84197;SDS011;74335;42.658;23.396;2023-11-22T04:58:15;7.53;;;4.78;;
84197;SDS011;74335;42.658;23.396;2023-11-22T05:00:42;8.48;;;4.60;;
84197;SDS011;74335;42.658;23.396;2023-11-22T05:03:08;8.40;;;5.88;;
84197;SDS011;74335;42.658;23.396;2023-11-22T05:05:35;14.85;;;10.25;;
84197;SDS011;74335;42.658;23.396;2023-11-22T05:08:02;15.77;;;9.63;;
84197;SDS011;74335;42.658;23.396;2023-11-22T05:10:29;16.70;;;11.15;;
84197;SDS011;74335;42.658;23.396;2023-11-22T05:12:56;16.40;;;11.98;;
84197;SDS011;74335;42.658;23.396;2023-11-22T05:15:26;18.02;;;11.57;;
84197;SDS011;74335;42.658;23.396;2023-11-22T05:17:53;15.45;;;11.65;;
84197;SDS011;74335;42.658;23.396;2023-11-22T05:20:20;14.73;;;11.52;;
84197;SDS011;74335;42.658;23.396;2023-11-22T05:22:46;17.60;;;11.50;;
84197;SDS011;74335;42.658;23.396;2023-11-22T05:25:13;14.38;;;11.85;;
84197;SDS011;74335;42.658;23.396;2023-11-22T05:27:40;20.13;;;12.25;;
84197;SDS011;74335;42.658;23.396;2023-11-22T05:30:07;19.42;;;11.57;;
84197;SDS011;74335;42.658;23.396;2023-11-22T05:32:37;20.05;;;11.25;;
84197;SDS011;74335;42.658;23.396;2023-11-22T05:35:04;14.80;;;10.15;;
84197;SDS011;74335;42.658;23.396;2023-11-22T05:37:34;12.35;;;7.63;;
84197;SDS011;74335;42.658;23.396;2023-11-22T05:40:02;11.93;;;7.90;;
84197;SDS011;74335;42.658;23.396;2023-11-22T05:42:29;11.80;;;7.78;;
84197;SDS011;74335;42.658;23.396;2023-11-22T05:44:56;12.13;;;7.57;;
84197;SDS011;74335;42.658;23.396;2023-11-22T05:47:23;11.65;;;7.60;;
84197;SDS011;74335;42.658;23.396;2023-11-22T05:49:51;12.20;;;6.30;;
84197;SDS011;74335;42.658;23.396;2023-11-22T05:52:18;9.20;;;6.78;;
84197;SDS011;74335;42.658;23.396;2023-11-22T05:54:45;13.98;;;5.88;;
84197;SDS011;74335;42.658;23.396;2023-11-22T05:57:15;13.85;;;7.00;;
84197;SDS011;74335;42.658;23.396;2023-11-22T05:59:43;10.98;;;5.70;;
84197;SDS011;74335;42.658;23.396;2023-11-22T06:02:09;9.35;;;6.90;;
84197;SDS011;74335;42.658;23.396;2023-11-22T06:04:36;9.85;;;6.05;;
84197;SDS011;74335;42.658;23.396;2023-11-22T06:07:04;8.88;;;6.15;;
84197;SDS011;74335;42.658;23.396;2023-11-22T06:09:31;12.38;;;6.55;;
84197;SDS011;74335;42.658;23.396;2023-11-22T06:11:59;15.40;;;6.70;;
84197;SDS011;74335;42.658;23.396;2023-11-22T06:14:25;11.35;;;6.47;;
84197;SDS011;74335;42.658;23.396;2023-11-22T06:16:52;10.05;;;6.18;;
84197;SDS011;74335;42.658;23.396;2023-11-22T06:19:19;14.60;;;7.07;;
84197;SDS011;74335;42.658;23.396;2023-11-22T06:21:46;9.48;;;6.28;;
84197;SDS011;74335;42.658;23.396;2023-11-22T06:24:14;10.52;;;6.15;;
84197;SDS011;74335;42.658;23.396;2023-11-22T06:26:42;10.68;;;6.10;;
84197;SDS011;74335;42.658;23.396;2023-11-22T06:29:11;9.73;;;6.45;;
84197;SDS011;74335;42.658;23.396;2023-11-22T06:31:37;10.75;;;5.93;;
84197;SDS011;74335;42.658;23.396;2023-11-22T06:34:05;7.07;;;4.57;;
84197;SDS011;74335;42.658;23.396;2023-11-22T06:36:32;9.13;;;6.20;;
84197;SDS011;74335;42.658;23.396;2023-11-22T06:38:59;9.15;;;5.80;;
84197;SDS011;74335;42.658;23.396;2023-11-22T06:41:27;11.85;;;6.60;;
84197;SDS011;74335;42.658;23.396;2023-11-22T06:43:54;13.77;;;6.30;;
84197;SDS011;74335;42.658;23.396;2023-11-22T06:46:21;8.88;;;5.88;;
84197;SDS011;74335;42.658;23.396;2023-11-22T06:48:49;11.38;;;6.30;;
84197;SDS011;74335;42.658;23.396;2023-11-22T06:51:15;9.07;;;6.15;;
84197;SDS011;74335;42.658;23.396;2023-11-22T06:53:43;10.25;;;6.25;;
84197;SDS011;74335;42.658;23.396;2023-11-22T06:56:10;10.48;;;5.60;;
84197;SDS011;74335;42.658;23.396;2023-11-22T06:58:38;15.88;;;6.82;;
84197;SDS011;74335;42.658;23.396;2023-11-22T07:01:05;8.63;;;6.93;;
84197;SDS011;74335;42.658;23.396;2023-11-22T07:03:32;8.98;;;5.70;;
84197;SDS011;74335;42.658;23.396;2023-11-22T07:05:59;10.43;;;6.10;;
84197;SDS011;74335;42.658;23.396;2023-11-22T07:08:25;8.60;;;4.95;;
84197;SDS011;74335;42.658;23.396;2023-11-22T07:10:53;10.02;;;6.20;;
84197;SDS011;74335;42.658;23.396;2023-11-22T07:13:21;8.73;;;5.18;;
84197;SDS011;74335;42.658;23.396;2023-11-22T07:15:50;9.20;;;5.35;;
84197;SDS011;74335;42.658;23.396;2023-11-22T07:18:19;8.05;;;5.32;;
84197;SDS011;74335;42.658;23.396;2023-11-22T07:20:49;7.78;;;5.28;;
84197;SDS011;74335;42.658;23.396;2023-11-22T07:23:16;8.50;;;5.80;;
84197;SDS011;74335;42.658;23.396;2023-11-22T07:25:45;11.07;;;5.53;;
84197;SDS011;74335;42.658;23.396;2023-11-22T07:28:11;8.50;;;5.15;;
84197;SDS011;74335;42.658;23.396;2023-11-22T07:30:38;8.00;;;5.28;;
84197;SDS011;74335;42.658;23.396;2023-11-22T07:33:08;9.73;;;5.78;;
84197;SDS011;74335;42.658;23.396;2023-11-22T07:35:36;7.50;;;5.22;;
84197;SDS011;74335;42.658;23.396;2023-11-22T07:38:04;9.38;;;6.13;;
84197;SDS011;74335;42.658;23.396;2023-11-22T07:40:33;8.68;;;5.85;;
84197;SDS011;74335;42.658;23.396;2023-11-22T07:42:59;9.77;;;5.18;;
84197;SDS011;74335;42.658;23.396;2023-11-22T07:45:27;6.50;;;4.38;;
84197;SDS011;74335;42.658;23.396;2023-11-22T07:47:54;7.63;;;6.07;;
84197;SDS011;74335;42.658;23.396;2023-11-22T07:50:25;12.00;;;5.25;;
84197;SDS011;74335;42.658;23.396;2023-11-22T07:52:52;10.77;;;5.57;;
84197;SDS011;74335;42.658;23.396;2023-11-22T07:55:19;10.77;;;5.32;;
84197;SDS011;74335;42.658;23.396;2023-11-22T07:57:47;7.28;;;5.03;;
84197;SDS011;74335;42.658;23.396;2023-11-22T08:00:18;8.82;;;4.47;;
84197;SDS011;74335;42.658;23.396;2023-11-22T08:02:45;10.73;;;6.38;;
84197;SDS011;74335;42.658;23.396;2023-11-22T08:05:12;7.35;;;5.28;;
84197;SDS011;74335;42.658;23.396;2023-11-22T08:07:42;7.63;;;4.90;;
84197;SDS011;74335;42.658;23.396;2023-11-22T08:12:43;6.65;;;4.22;;
84197;SDS011;74335;42.658;23.396;2023-11-22T08:15:12;9.82;;;5.20;;
84197;SDS011;74335;42.658;23.396;2023-11-22T08:17:40;6.75;;;4.78;;
84197;SDS011;74335;42.658;23.396;2023-11-22T08:20:08;7.43;;;4.88;;
84197;SDS011;74335;42.658;23.396;2023-11-22T08:22:38;7.47;;;5.15;;
84197;SDS011;74335;42.658;23.396;2023-11-22T08:25:07;8.23;;;5.10;;
84197;SDS011;74335;42.658;23.396;2023-11-22T08:27:37;7.70;;;4.45;;
84197;SDS011;74335;42.658;23.396;2023-11-22T08:30:05;8.68;;;5.45;;
84197;SDS011;74335;42.658;23.396;2023-11-22T08:32:38;8.40;;;5.40;;
84197;SDS011;74335;42.658;23.396;2023-11-22T08:35:09;7.75;;;5.00;;
84197;SDS011;74335;42.658;23.396;2023-11-22T08:37:39;7.32;;;5.05;;
84197;SDS011;74335;42.658;23.396;2023-11-22T08:40:08;6.70;;;4.45;;
84197;SDS011;74335;42.658;23.396;2023-11-22T08:42:39;6.93;;;4.60;;
84197;SDS011;74335;42.658;23.396;2023-11-22T08:45:07;8.60;;;4.82;;
84197;SDS011;74335;42.658;23.396;2023-11-22T08:47:36;8.52;;;4.85;;
84197;SDS011;74335;42.658;23.396;2023-11-22T08:50:05;6.45;;;4.80;;
84197;SDS011;74335;42.658;23.396;2023-11-22T08:52:33;5.43;;;3.78;;
84197;SDS011;74335;42.658;23.396;2023-11-22T08:55:01;7.93;;;5.03;;
84197;SDS011;74335;42.658;23.396;2023-11-22T08:57:30;6.63;;;4.82;;
84197;SDS011;74335;42.658;23.396;2023-11-22T08:59:57;7.43;;;4.75;;
84197;SDS011;74335;42.658;23.396;2023-11-22T09:02:31;10.15;;;4.85;;
84197;SDS011;74335;42.658;23.396;2023-11-22T09:04:57;8.10;;;5.07;;
84197;SDS011;74335;42.658;23.396;2023-11-22T09:07:24;7.78;;;5.07;;
84197;SDS011;74335;42.658;23.396;2023-11-22T09:09:51;7.03;;;5.32;;
84197;SDS011;74335;42.658;23.396;2023-11-22T09:12:17;6.45;;;4.47;;
84197;SDS011;74335;42.658;23.396;2023-11-22T09:14:46;8.73;;;4.65;;
84197;SDS011;74335;42.658;23.396;2023-11-22T09:17:13;8.65;;;4.70;;
84197;SDS011;74335;42.658;23.396;2023-11-22T09:19:39;8.68;;;4.68;;
84197;SDS011;74335;42.658;23.396;2023-11-22T09:22:06;6.95;;;4.68;;
84197;SDS011;74335;42.658;23.396;2023-11-22T09:24:33;6.65;;;4.93;;
84197;SDS011;74335;42.658;23.396;2023-11-22T09:27:02;6.50;;;4.28;;
84197;SDS011;74335;42.658;23.396;2023-11-22T09:29:30;10.32;;;4.50;;
84197;SDS011;74335;42.658;23.396;2023-11-22T09:31:59;6.97;;;4.80;;
84197;SDS011;74335;42.658;23.396;2023-11-22T09:34:27;7.78;;;5.32;;
84197;SDS011;74335;42.658;23.396;2023-11-22T09:36:54;10.02;;;4.70;;
84197;SDS011;74335;42.658;23.396;2023-11-22T09:39:21;6.75;;;5.10;;
84197;SDS011;74335;42.658;23.396;2023-11-22T09:41:50;7.18;;;4.90;;
84197;SDS011;74335;42.658;23.396;2023-11-22T09:44:18;7.00;;;4.43;;
84197;SDS011;74335;42.658;23.396;2023-11-22T09:46:45;12.63;;;5.22;;
84197;SDS011;74335;42.658;23.396;2023-11-22T09:49:18;7.90;;;4.43;;
84197;SDS011;74335;42.658;23.396;2023-11-22T09:51:49;10.90;;;5.32;;
84197;SDS011;74335;42.658;23.396;2023-11-22T09:54:20;8.02;;;5.13;;
84197;SDS011;74335;42.658;23.396;2023-11-22T09:56:55;6.03;;;4.60;;
84197;SDS011;74335;42.658;23.396;2023-11-22T09:59:26;6.45;;;4.82;;
84197;SDS011;74335;42.658;23.396;2023-11-22T10:01:53;8.50;;;4.50;;
84197;SDS011;74335;42.658;23.396;2023-11-22T10:04:22;7.07;;;4.80;;
84197;SDS011;74335;42.658;23.396;2023-11-22T10:06:50;10.02;;;4.75;;
84197;SDS011;74335;42.658;23.396;2023-11-22T10:09:18;8.65;;;5.03;;
84197;SDS011;74335;42.658;23.396;2023-11-22T10:11:44;8.13;;;4.65;;
84197;SDS011;74335;42.658;23.396;2023-11-22T10:14:12;7.90;;;4.20;;
84197;SDS011;74335;42.658;23.396;2023-11-22T10:16:57;12.40;;;6.00;;
84197;SDS011;74335;42.658;23.396;2023-11-22T10:19:26;10.20;;;5.78;;
84197;SDS011;74335;42.658;23.396;2023-11-22T10:22:03;6.00;;;4.93;;
84197;SDS011;74335;42.658;23.396;2023-11-22T10:24:30;8.73;;;4.93;;
84197;SDS011;74335;42.658;23.396;2023-11-22T10:26:58;7.43;;;3.95;;
84197;SDS011;74335;42.658;23.396;2023-11-22T10:29:25;8.07;;;4.93;;
84197;SDS011;74335;42.658;23.396;2023-11-22T10:31:52;6.80;;;4.43;;
84197;SDS011;74335;42.658;23.396;2023-11-22T10:34:20;11.02;;;5.50;;
84197;SDS011;74335;42.658;23.396;2023-11-22T10:36:48;8.48;;;5.00;;
84197;SDS011;74335;42.658;23.396;2023-11-22T10:39:18;9.50;;;5.50;;
84197;SDS011;74335;42.658;23.396;2023-11-22T10:41:45;7.72;;;4.75;;
84197;SDS011;74335;42.658;23.396;2023-11-22T10:44:12;9.70;;;4.93;;
84197;SDS011;74335;42.658;23.396;2023-11-22T10:46:40;7.93;;;5.20;;
84197;SDS011;74335;42.658;23.396;2023-11-22T10:49:07;7.28;;;4.70;;
84197;SDS011;74335;42.658;23.396;2023-11-22T10:51:34;7.32;;;4.70;;
84197;SDS011;74335;42.658;23.396;2023-11-22T10:54:07;5.93;;;4.32;;
84197;SDS011;74335;42.658;23.396;2023-11-22T10:56:36;9.07;;;5.10;;
84197;SDS011;74335;42.658;23.396;2023-11-22T10:59:08;8.07;;;4.97;;
84197;SDS011;74335;42.658;23.396;2023-11-22T11:01:38;8.23;;;4.57;;
84197;SDS011;74335;42.658;23.396;2023-11-22T11:04:15;6.55;;;4.82;;
84197;SDS011;74335;42.658;23.396;2023-11-22T11:06:47;7.80;;;4.60;;
84197;SDS011;74335;42.658;23.396;2023-11-22T11:09:18;8.57;;;5.10;;
84197;SDS011;74335;42.658;23.396;2023-11-22T11:11:49;9.00;;;4.63;;
84197;SDS011;74335;42.658;23.396;2023-11-22T11:14:16;7.82;;;3.63;;
84197;SDS011;74335;42.658;23.396;2023-11-22T11:29:49;24.20;;;17.23;;
84197;SDS011;74335;42.658;23.396;2023-11-22T11:32:16;26.20;;;20.10;;
84197;SDS011;74335;42.658;23.396;2023-11-22T11:34:56;30.13;;;19.73;;
84197;SDS011;74335;42.658;23.396;2023-11-22T11:37:25;29.33;;;19.15;;
84197;SDS011;74335;42.658;23.396;2023-11-22T11:39:52;28.85;;;18.63;;
84197;SDS011;74335;42.658;23.396;2023-11-22T11:42:19;30.30;;;20.00;;
84197;SDS011;74335;42.658;23.396;2023-11-22T11:45:04;31.70;;;20.10;;
84197;SDS011;74335;42.658;23.396;2023-11-22T11:47:34;33.22;;;19.95;;
84197;SDS011;74335;42.658;23.396;2023-11-22T11:50:01;33.85;;;22.35;;
84197;SDS011;74335;42.658;23.396;2023-11-22T11:52:27;32.53;;;20.52;;
84197;SDS011;74335;42.658;23.396;2023-11-22T11:54:56;29.70;;;18.77;;
84197;SDS011;74335;42.658;23.396;2023-11-22T11:57:23;32.08;;;19.92;;
84197;SDS011;74335;42.658;23.396;2023-11-22T11:59:50;33.88;;;19.92;;
84197;SDS011;74335;42.658;23.396;2023-11-22T12:02:22;28.45;;;19.77;;
84197;SDS011;74335;42.658;23.396;2023-11-22T12:04:49;29.92;;;20.88;;
84197;SDS011;74335;42.658;23.396;2023-11-22T12:07:16;30.70;;;20.08;;
84197;SDS011;74335;42.658;23.396;2023-11-22T12:09:43;28.98;;;19.17;;
84197;SDS011;74335;42.658;23.396;2023-11-22T12:12:11;24.73;;;17.38;;
84197;SDS011;74335;42.658;23.396;2023-11-22T12:14:38;28.15;;;17.42;;
84197;SDS011;74335;42.658;23.396;2023-11-22T12:17:05;29.30;;;17.02;;
84197;SDS011;74335;42.658;23.396;2023-11-22T12:19:34;31.42;;;19.25;;
84197;SDS011;74335;42.658;23.396;2023-11-22T12:32:23;35.65;;;22.33;;
84197;SDS011;74335;42.658;23.396;2023-11-22T12:34:52;35.38;;;21.95;;
84197;SDS011;74335;42.658;23.396;2023-11-22T12:37:20;32.22;;;20.45;;
84197;SDS011;74335;42.658;23.396;2023-11-22T12:39:47;31.65;;;21.52;;
84197;SDS011;74335;42.658;23.396;2023-11-22T12:42:14;29.92;;;20.05;;
84197;SDS011;74335;42.658;23.396;2023-11-22T12:44:47;28.52;;;17.55;;
84197;SDS011;74335;42.658;23.396;2023-11-22T12:47:14;28.60;;;19.48;;
84197;SDS011;74335;42.658;23.396;2023-11-22T12:49:44;28.80;;;19.85;;
84197;SDS011;74335;42.658;23.396;2023-11-22T12:52:13;31.98;;;21.10;;
84197;SDS011;74335;42.658;23.396;2023-11-22T12:54:40;33.75;;;21.40;;
84197;SDS011;74335;42.658;23.396;2023-11-22T12:57:10;34.13;;;21.60;;
84197;SDS011;74335;42.658;23.396;2023-11-22T12:59:38;32.25;;;20.83;;
84197;SDS011;74335;42.658;23.396;2023-11-22T13:02:05;34.70;;;21.50;;
84197;SDS011;74335;42.658;23.396;2023-11-22T13:04:32;33.85;;;22.95;;
84197;SDS011;74335;42.658;23.396;2023-11-22T13:06:59;32.80;;;20.65;;
84197;SDS011;74335;42.658;23.396;2023-11-22T13:09:27;33.42;;;21.85;;
84197;SDS011;74335;42.658;23.396;2023-11-22T13:11:57;37.30;;;21.70;;
84197;SDS011;74335;42.658;23.396;2023-11-22T13:14:24;33.70;;;21.52;;
84197;SDS011;74335;42.658;23.396;2023-11-22T13:19:23;38.33;;;23.13;;
84197;SDS011;74335;42.658;23.396;2023-11-22T13:21:50;36.25;;;22.42;;
84197;SDS011;74335;42.658;23.396;2023-11-22T13:24:17;33.70;;;22.10;;
84197;SDS011;74335;42.658;23.396;2023-11-22T13:26:47;33.35;;;22.75;;
84197;SDS011;74335;42.658;23.396;2023-11-22T13:29:13;39.30;;;23.65;;
84197;SDS011;74335;42.658;23.396;2023-11-22T13:31:40;38.72;;;23.17;;
84197;SDS011;74335;42.658;23.396;2023-11-22T13:34:07;39.47;;;24.55;;
84197;SDS011;74335;42.658;23.396;2023-11-22T13:36:34;42.13;;;22.95;;
84197;SDS011;74335;42.658;23.396;2023-11-22T13:39:00;37.83;;;23.35;;
84197;SDS011;74335;42.658;23.396;2023-11-22T13:41:29;37.83;;;24.30;;
84197;SDS011;74335;42.658;23.396;2023-11-22T13:43:59;34.67;;;19.63;;
84197;SDS011;74335;42.658;23.396;2023-11-22T13:46:26;35.83;;;21.30;;
84197;SDS011;74335;42.658;23.396;2023-11-22T13:48:52;42.83;;;22.77;;
84197;SDS011;74335;42.658;23.396;2023-11-22T13:51:19;40.55;;;23.35;;
84197;SDS011;74335;42.658;23.396;2023-11-22T13:53:46;40.65;;;25.85;;
84197;SDS011;74335;42.658;23.396;2023-11-22T13:56:18;40.35;;;25.42;;
84197;SDS011;74335;42.658;23.396;2023-11-22T13:58:45;36.90;;;25.23;;
84197;SDS011;74335;42.658;23.396;2023-11-22T14:01:13;41.70;;;24.40;;
84197;SDS011;74335;42.658;23.396;2023-11-22T14:03:46;38.55;;;23.65;;
84197;SDS011;74335;42.658;23.396;2023-11-22T14:06:13;26.95;;;17.65;;
84197;SDS011;74335;42.658;23.396;2023-11-22T14:08:42;26.35;;;16.85;;
84197;SDS011;74335;42.658;23.396;2023-11-22T14:11:09;25.45;;;15.82;;
84197;SDS011;74335;42.658;23.396;2023-11-22T14:13:37;24.98;;;14.57;;
84197;SDS011;74335;42.658;23.396;2023-11-22T14:16:05;30.45;;;16.40;;
84197;SDS011;74335;42.658;23.396;2023-11-22T14:18:33;26.52;;;16.63;;
84197;SDS011;74335;42.658;23.396;2023-11-22T14:21:00;28.05;;;16.40;;
84197;SDS011;74335;42.658;23.396;2023-11-22T14:23:28;24.05;;;13.70;;
84197;SDS011;74335;42.658;23.396;2023-11-22T14:25:55;23.92;;;13.23;;
84197;SDS011;74335;42.658;23.396;2023-11-22T14:28:22;24.15;;;14.20;;
84197;SDS011;74335;42.658;23.396;2023-11-22T14:30:49;25.70;;;14.95;;
84197;SDS011;74335;42.658;23.396;2023-11-22T14:33:19;22.70;;;14.23;;
84197;SDS011;74335;42.658;23.396;2023-11-22T14:35:47;21.00;;;13.73;;
84197;SDS011;74335;42.658;23.396;2023-11-22T14:38:14;22.15;;;12.35;;
84197;SDS011;74335;42.658;23.396;2023-11-22T14:40:42;20.70;;;11.27;;
84197;SDS011;74335;42.658;23.396;2023-11-22T14:43:09;20.88;;;11.18;;
84197;SDS011;74335;42.658;23.396;2023-11-22T14:45:36;18.10;;;10.18;;
84197;SDS011;74335;42.658;23.396;2023-11-22T14:48:04;15.50;;;7.57;;
84197;SDS011;74335;42.658;23.396;2023-11-22T14:50:32;13.20;;;8.27;;
84197;SDS011;74335;42.658;23.396;2023-11-22T14:53:00;13.18;;;8.02;;
84197;SDS011;74335;42.658;23.396;2023-11-22T14:55:28;17.13;;;8.77;;
84197;SDS011;74335;42.658;23.396;2023-11-22T14:57:55;14.85;;;8.43;;